createdAt,value
2022-11-16T00:00:10.792Z,100111.47
2022-11-16T00:02:13.597Z,100115.81
2022-11-16T00:04:16.609Z,100115.88
2022-11-16T00:06:25.734Z,100112.56
2022-11-16T00:08:34.358Z,100110.84
2022-11-16T00:10:39.349Z,100100.59
2022-11-16T00:12:41.132Z,100106.63
2022-11-16T00:14:46.016Z,100105.84
2022-11-16T00:16:51.774Z,100110.09
2022-11-16T00:18:58.472Z,100099.06
2022-11-16T00:21:07.361Z,100107.47
2022-11-16T00:23:09.294Z,100096.56
2022-11-16T00:25:11.304Z,100100.03
2022-11-16T00:27:13.341Z,100099.28
2022-11-16T00:29:24.735Z,100099.34
2022-11-16T00:31:33.699Z,100104.44
2022-11-16T00:33:36.012Z,100105.38
2022-11-16T00:35:39.858Z,100107.09
2022-11-16T00:37:51.154Z,100102.84
2022-11-16T00:39:52.958Z,100097.69
2022-11-16T00:42:05.150Z,100107.06
2022-11-16T00:44:13.453Z,100101.97
2022-11-16T00:46:18.071Z,100099.47
2022-11-16T00:48:21.667Z,100093.53
2022-11-16T00:50:24.562Z,100104.56
2022-11-16T00:52:26.542Z,100096.13
2022-11-16T00:54:31.193Z,100097.00
2022-11-16T00:56:35.735Z,100096.13
2022-11-16T00:58:37.650Z,100095.19
2022-11-16T01:00:42.201Z,100091.03
2022-11-16T01:02:44.313Z,100082.53
2022-11-16T01:04:46.131Z,100085.09
2022-11-16T01:06:48.051Z,100078.34
2022-11-16T01:08:50.522Z,100069.00
2022-11-16T01:10:53.520Z,100069.81
2022-11-16T01:12:56.222Z,100070.72
2022-11-16T01:14:58.089Z,100073.25
2022-11-16T01:16:59.977Z,100071.59
2022-11-16T01:19:06.167Z,100066.50
2022-11-16T01:21:08.373Z,100059.81
2022-11-16T01:23:10.219Z,100058.13
2022-11-16T01:25:15.167Z,100064.09
2022-11-16T01:27:16.952Z,100049.56
2022-11-16T01:29:18.876Z,100054.72
2022-11-16T01:31:21.864Z,100052.28
2022-11-16T01:33:24.142Z,100051.41
2022-11-16T01:35:27.042Z,100054.91
2022-11-16T01:37:30.225Z,100066.88
2022-11-16T01:39:35.079Z,100058.34
2022-11-16T01:41:36.927Z,100054.94
2022-11-16T01:43:52.435Z,100056.63
2022-11-16T01:45:54.380Z,100050.00
2022-11-16T01:47:56.267Z,100053.44
2022-11-16T01:50:19.157Z,100047.44
2022-11-16T01:52:25.368Z,100053.44
2022-11-16T01:54:28.983Z,100040.84
2022-11-16T01:56:33.015Z,100035.97
2022-11-16T01:58:35.637Z,100027.38
2022-11-16T02:00:37.707Z,100032.44
2022-11-16T02:02:39.515Z,100037.47
2022-11-16T02:04:41.837Z,100041.63
2022-11-16T02:07:13.549Z,100039.91
2022-11-16T02:09:53.066Z,100040.94
2022-11-16T02:12:25.995Z,100031.63
2022-11-16T02:14:55.091Z,100038.47
2022-11-16T02:17:21.010Z,100032.63
2022-11-16T02:19:34.891Z,100029.38
2022-11-16T02:22:18.924Z,100028.50
2022-11-16T02:24:44.385Z,100028.63
2022-11-16T02:27:01.139Z,100032.16
2022-11-16T02:29:12.018Z,100021.09
2022-11-16T02:31:18.662Z,100012.53
2022-11-16T02:33:27.951Z,100010.97
2022-11-16T02:35:47.415Z,100009.16
2022-11-16T02:37:58.133Z,100004.81
2022-11-16T02:40:04.936Z,100009.88
2022-11-16T02:42:14.146Z,100013.97
2022-11-16T02:44:40.370Z,100007.16
2022-11-16T02:46:46.294Z,100005.63
2022-11-16T02:48:53.463Z,100004.13
2022-11-16T02:50:56.211Z,100001.56
2022-11-16T02:52:58.183Z,99995.69
2022-11-16T02:55:00.012Z,99997.13
2022-11-16T02:57:04.887Z,99994.44
2022-11-16T02:59:08.822Z,99993.72
2022-11-16T03:01:35.490Z,99988.63
2022-11-16T03:03:59.188Z,99976.63
2022-11-16T03:06:11.692Z,99979.25
2022-11-16T03:08:29.730Z,99975.91
2022-11-16T03:10:54.350Z,99980.06
2022-11-16T03:12:57.480Z,99980.16
2022-11-16T03:15:05.041Z,99975.66
2022-11-16T03:17:17.993Z,99980.75
2022-11-16T03:22:42.150Z,99984.25
2022-11-16T03:24:44.538Z,99984.31
2022-11-16T03:26:58.045Z,99977.34
2022-11-16T03:29:20.261Z,99978.09
2022-11-16T03:31:42.309Z,99979.56
2022-11-16T03:33:48.761Z,99988.16
2022-11-16T03:36:05.313Z,99983.88
2022-11-16T03:38:09.870Z,99983.06
2022-11-16T03:40:13.343Z,99976.34
2022-11-16T03:42:16.742Z,99974.63
2022-11-16T03:44:21.385Z,99973.69
2022-11-16T03:46:24.509Z,99963.50
2022-11-16T03:48:36.033Z,99959.28
2022-11-16T03:50:38.550Z,99962.69
2022-11-16T03:52:40.558Z,99959.34
2022-11-16T03:54:42.981Z,99956.66
2022-11-16T03:56:44.760Z,99953.34
2022-11-16T03:58:46.827Z,99955.03
2022-11-16T04:00:48.949Z,99952.38
2022-11-16T04:02:52.793Z,99946.38
2022-11-16T04:05:13.257Z,99943.81
2022-11-16T04:07:33.947Z,99942.97
2022-11-16T04:09:54.478Z,99942.22
2022-11-16T04:12:15.127Z,99931.19
2022-11-16T04:14:42.480Z,99933.63
2022-11-16T04:17:02.735Z,99940.41
2022-11-16T04:19:29.256Z,99949.84
2022-11-16T04:21:58.914Z,99941.38
2022-11-16T04:24:13.013Z,99938.84
2022-11-16T04:26:15.071Z,99939.72
2022-11-16T04:28:19.847Z,99938.03
2022-11-16T04:30:21.897Z,99941.38
2022-11-16T04:32:42.143Z,99937.19
2022-11-16T04:35:02.809Z,99951.53
2022-11-16T04:37:39.243Z,99947.22
2022-11-16T04:39:43.103Z,99945.56
2022-11-16T04:42:03.381Z,99948.16
2022-11-16T04:44:05.300Z,99949.84
2022-11-16T04:46:25.782Z,99948.91
2022-11-16T04:48:27.639Z,99937.97
2022-11-16T04:50:29.551Z,99936.25
2022-11-16T04:52:31.433Z,99932.03
2022-11-16T04:54:34.287Z,99939.72
2022-11-16T04:56:36.154Z,99937.97
2022-11-16T04:58:46.663Z,99944.75
2022-11-16T05:00:50.463Z,99949.84
2022-11-16T05:02:59.710Z,99946.38
2022-11-16T05:05:03.705Z,99939.66
2022-11-16T05:07:12.088Z,99937.09
2022-11-16T05:09:19.822Z,99949.91
2022-11-16T05:11:24.053Z,99943.88
2022-11-16T05:13:25.926Z,99941.28
2022-11-16T05:15:27.855Z,99930.22
2022-11-16T05:17:29.910Z,99940.34
2022-11-16T05:20:09.056Z,99930.28
2022-11-16T05:22:11.888Z,99929.38
2022-11-16T05:24:32.458Z,99931.03
2022-11-16T05:26:37.311Z,99925.06
2022-11-16T05:28:39.160Z,99928.53
2022-11-16T05:30:45.938Z,99929.41
2022-11-16T05:32:47.812Z,99922.59
2022-11-16T05:34:50.153Z,99921.72
2022-11-16T05:36:53.651Z,99922.50
2022-11-16T05:38:56.448Z,99924.97
2022-11-16T05:40:58.361Z,99923.34
2022-11-16T05:43:03.375Z,99920.72
2022-11-16T05:45:05.725Z,99927.63
2022-11-16T05:47:10.809Z,99916.63
2022-11-16T05:49:13.580Z,99930.16
2022-11-16T05:51:15.786Z,99930.16
2022-11-16T05:53:17.628Z,99936.84
2022-11-16T05:55:19.449Z,99934.28
2022-11-16T05:57:31.353Z,99943.81
2022-11-16T05:59:33.345Z,99942.84
2022-11-16T06:01:35.315Z,99941.97
2022-11-16T06:03:37.281Z,99935.91
2022-11-16T06:05:40.725Z,99948.81
2022-11-16T06:07:42.725Z,99941.97
2022-11-16T06:09:45.565Z,99953.09
2022-11-16T06:11:47.494Z,99955.53
2022-11-16T06:13:55.463Z,99955.63
2022-11-16T06:15:57.650Z,99958.94
2022-11-16T06:17:59.448Z,99956.44
2022-11-16T06:20:03.503Z,99959.84
2022-11-16T06:22:07.248Z,99959.09
2022-11-16T06:24:10.206Z,99964.31
2022-11-16T06:26:12.083Z,99969.38
2022-11-16T06:28:15.339Z,99957.59
2022-11-16T06:30:17.404Z,99944.84
2022-11-16T06:32:19.283Z,99945.78
2022-11-16T06:34:21.173Z,99939.81
2022-11-16T06:36:23.223Z,99944.06
2022-11-16T06:38:31.120Z,99940.78
2022-11-16T06:40:34.291Z,99942.47
2022-11-16T06:42:36.254Z,99939.16
2022-11-16T06:44:38.143Z,99933.28
2022-11-16T06:46:40.087Z,99934.97
2022-11-16T06:48:41.950Z,99930.75
2022-11-16T06:50:43.872Z,99941.78
2022-11-16T06:52:46.962Z,99943.69
2022-11-16T06:54:48.822Z,99940.34
2022-11-16T06:56:50.717Z,99946.22
2022-11-16T06:58:53.626Z,99941.13
2022-11-16T07:00:55.632Z,99933.66
2022-11-16T07:02:57.653Z,99925.91
2022-11-16T07:05:03.479Z,99929.31
2022-11-16T07:07:07.286Z,99929.38
2022-11-16T07:09:09.905Z,99935.50
2022-11-16T07:11:12.799Z,99934.66
2022-11-16T07:13:15.807Z,99925.25
2022-11-16T07:15:17.892Z,99922.59
2022-11-16T07:17:19.804Z,99907.41
2022-11-16T07:19:23.632Z,99919.47
2022-11-16T07:21:25.991Z,99910.88
2022-11-16T07:23:30.376Z,99919.47
2022-11-16T07:25:34.423Z,99912.66
2022-11-16T07:27:36.470Z,99912.50
2022-11-16T07:29:39.313Z,99916.88
2022-11-16T07:31:44.237Z,99910.88
2022-11-16T07:33:46.086Z,99914.50
2022-11-16T07:35:48.998Z,99910.25
2022-11-16T07:37:50.909Z,99919.59
2022-11-16T07:39:52.795Z,99911.94
2022-11-16T07:41:54.767Z,99917.13
2022-11-16T07:43:57.167Z,99916.31
2022-11-16T07:48:42.807Z,99915.63
2022-11-16T07:50:44.712Z,99909.59
2022-11-16T07:52:47.709Z,99913.28
2022-11-16T07:54:50.613Z,99913.47
2022-11-16T07:56:52.510Z,99906.81
2022-11-16T07:58:55.387Z,99908.50
2022-11-16T08:01:11.653Z,99910.22
2022-11-16T08:03:18.192Z,99905.06
2022-11-16T08:05:23.789Z,99905.97
2022-11-16T08:07:26.695Z,99905.91
2022-11-16T08:09:28.775Z,99908.59
2022-11-16T08:11:30.649Z,99900.81
2022-11-16T08:13:35.199Z,99901.75
2022-11-16T08:15:37.082Z,99902.69
2022-11-16T08:17:38.980Z,99898.31
2022-11-16T08:19:42.526Z,99898.41
2022-11-16T08:21:45.957Z,99905.22
2022-11-16T08:23:47.930Z,99905.19
2022-11-16T08:25:49.831Z,99900.13
2022-11-16T08:27:51.716Z,99905.22
2022-11-16T08:29:53.578Z,99895.16
2022-11-16T08:31:55.766Z,99898.50
2022-11-16T08:34:00.521Z,99899.44
2022-11-16T08:36:14.025Z,99896.72
2022-11-16T08:38:16.529Z,99900.03
2022-11-16T08:40:18.489Z,99899.34
2022-11-16T08:42:21.629Z,99909.47
2022-11-16T08:44:23.703Z,99909.53
2022-11-16T08:46:26.424Z,99911.31
2022-11-16T08:48:28.350Z,99914.72
2022-11-16T08:50:33.446Z,99912.88
2022-11-16T08:52:41.668Z,99913.72
2022-11-16T08:54:43.587Z,99912.03
2022-11-16T08:56:45.458Z,99912.84
2022-11-16T08:58:48.283Z,99913.72
2022-11-16T09:00:53.287Z,99913.72
2022-11-16T09:02:55.214Z,99917.19
2022-11-16T09:04:57.392Z,99908.69
2022-11-16T09:07:00.343Z,99906.97
2022-11-16T09:09:04.412Z,99907.91
2022-11-16T09:11:11.890Z,99902.84
2022-11-16T09:13:14.874Z,99893.53
2022-11-16T09:15:16.815Z,99892.66
2022-11-16T09:17:22.991Z,99891.78
2022-11-16T09:19:27.272Z,99896.03
2022-11-16T09:21:30.367Z,99888.31
2022-11-16T09:23:32.311Z,99882.44
2022-11-16T09:25:34.148Z,99886.84
2022-11-16T09:27:38.090Z,99884.50
2022-11-16T09:29:39.924Z,99887.22
2022-11-16T09:31:44.928Z,99893.09
2022-11-16T09:33:47.944Z,99892.31
2022-11-16T09:35:49.843Z,99891.53
2022-11-16T09:37:51.676Z,99887.22
2022-11-16T09:39:53.562Z,99881.22
2022-11-16T09:42:24.191Z,99883.88
2022-11-16T09:44:31.880Z,99882.09
2022-11-16T09:46:52.919Z,99880.34
2022-11-16T09:48:59.012Z,99876.84
2022-11-16T09:51:07.702Z,99889.47
2022-11-16T09:53:46.993Z,99882.41
2022-11-16T09:56:21.932Z,99884.06
2022-11-16T09:58:34.588Z,99881.38
2022-11-16T10:00:41.545Z,99880.47
2022-11-16T10:02:48.243Z,99874.63
2022-11-16T10:04:58.600Z,99876.41
2022-11-16T10:07:12.382Z,99875.69
2022-11-16T10:09:14.579Z,99874.19
2022-11-16T10:11:16.443Z,99869.97
2022-11-16T10:13:38.278Z,99869.97
2022-11-16T10:15:50.745Z,99855.53
2022-11-16T10:18:17.430Z,99854.84
2022-11-16T10:20:41.587Z,99849.66
2022-11-16T10:22:59.842Z,99847.19
2022-11-16T10:25:25.839Z,99853.22
2022-11-16T10:27:39.185Z,99853.31
2022-11-16T10:30:07.308Z,99849.06
2022-11-16T10:32:22.610Z,99847.50
2022-11-16T10:34:42.599Z,99855.16
2022-11-16T10:36:45.318Z,99842.47
2022-11-16T10:38:47.302Z,99845.81
2022-11-16T10:41:34.980Z,99859.41
2022-11-16T10:43:37.411Z,99852.47
2022-11-16T10:45:58.135Z,99858.56
2022-11-16T10:47:59.969Z,99862.00
2022-11-16T10:50:14.720Z,99854.31
2022-11-16T10:52:16.591Z,99841.53
2022-11-16T10:54:18.804Z,99849.97
2022-11-16T10:56:45.849Z,99837.31
2022-11-16T10:59:08.402Z,99841.50
2022-11-16T11:01:10.676Z,99837.25
2022-11-16T11:03:13.435Z,99833.06
2022-11-16T11:05:20.404Z,99836.50
2022-11-16T11:07:29.585Z,99833.19
2022-11-16T11:09:37.036Z,99835.69
2022-11-16T11:11:57.559Z,99833.22
2022-11-16T11:14:08.983Z,99829.09
2022-11-16T11:16:18.501Z,99826.59
2022-11-16T11:18:23.440Z,99823.31
2022-11-16T11:20:25.509Z,99832.69
2022-11-16T11:22:27.898Z,99832.66
2022-11-16T11:24:43.836Z,99835.25
2022-11-16T11:26:53.905Z,99834.50
2022-11-16T11:28:56.530Z,99833.00
2022-11-16T11:31:26.096Z,99831.25
2022-11-16T11:33:33.379Z,99837.19
2022-11-16T11:35:35.544Z,99835.53
2022-11-16T11:37:39.928Z,99832.72
2022-11-16T11:39:42.966Z,99831.06
2022-11-16T11:41:47.074Z,99827.53
2022-11-16T11:44:06.541Z,99828.38
2022-11-16T11:46:42.206Z,99827.53
2022-11-16T11:49:25.274Z,99820.75
2022-11-16T11:51:36.055Z,99825.81
2022-11-16T11:53:58.045Z,99824.06
2022-11-16T11:56:00.583Z,99828.31
2022-11-16T11:58:06.414Z,99812.16
2022-11-16T12:00:09.517Z,99819.84
2022-11-16T12:02:36.545Z,99824.31
2022-11-16T12:04:53.316Z,99833.63
2022-11-16T12:07:07.216Z,99827.63
2022-11-16T12:09:09.121Z,99836.16
2022-11-16T12:11:39.186Z,99828.59
2022-11-16T12:14:03.345Z,99826.84
2022-11-16T12:16:13.875Z,99831.09
2022-11-16T12:18:29.145Z,99831.97
2022-11-16T12:21:13.393Z,99827.06
2022-11-16T12:23:27.592Z,99822.03
2022-11-16T12:25:46.010Z,99824.56
2022-11-16T12:28:18.781Z,99827.97
2022-11-16T12:30:24.043Z,99822.78
2022-11-16T12:32:37.954Z,99826.25
2022-11-16T12:34:48.634Z,99831.97
2022-11-16T12:37:16.135Z,99821.66
2022-11-16T12:39:54.550Z,99825.69
2022-11-16T12:42:27.918Z,99833.13
2022-11-16T12:44:45.961Z,99826.41
2022-11-16T12:47:32.081Z,99833.00
2022-11-16T12:50:01.884Z,99833.06
2022-11-16T12:52:23.683Z,99841.16
2022-11-16T12:57:53.837Z,99845.34
2022-11-16T13:00:01.912Z,99852.41
2022-11-16T13:02:34.158Z,99864.69
2022-11-16T13:04:45.822Z,99857.75
2022-11-16T13:07:10.968Z,99861.63
2022-11-16T13:09:18.424Z,99856.53
2022-11-16T13:11:26.008Z,99854.69
2022-11-16T13:13:38.829Z,99859.44
2022-11-16T13:15:48.967Z,99868.66
2022-11-16T13:18:04.022Z,99867.63
2022-11-16T13:20:32.089Z,99865.91
2022-11-16T13:22:47.040Z,99882.72
2022-11-16T13:25:13.144Z,99868.84
2022-11-16T13:27:48.278Z,99871.44
2022-11-16T13:30:35.134Z,99878.84
2022-11-16T13:32:51.941Z,99873.69
2022-11-16T13:35:18.972Z,99859.94
2022-11-16T13:37:39.296Z,99863.22
2022-11-16T13:40:21.707Z,99865.69
2022-11-16T13:42:25.024Z,99862.22
2022-11-16T13:44:33.848Z,99864.72
2022-11-16T13:46:55.945Z,99879.06
2022-11-16T13:48:59.602Z,99865.28
2022-11-16T13:51:16.403Z,99870.41
2022-11-16T13:56:00.628Z,99875.22
2022-11-16T13:58:21.834Z,99886.06
2022-11-16T14:00:30.811Z,99876.63
2022-11-16T14:02:36.541Z,99879.72
2022-11-16T14:05:13.497Z,99876.13
2022-11-16T14:07:52.342Z,99877.56
2022-11-16T14:09:54.285Z,99889.25
2022-11-16T14:12:34.891Z,99880.72
2022-11-16T14:15:13.782Z,99876.34
2022-11-16T14:17:54.887Z,99880.72
2022-11-16T14:19:57.847Z,99883.94
2022-11-16T14:22:12.678Z,99890.63
2022-11-16T14:24:40.109Z,99883.53
2022-11-16T14:27:15.816Z,99880.19
2022-11-16T14:29:46.792Z,99881.00
2022-11-16T14:31:56.120Z,99892.97
2022-11-16T14:34:00.926Z,99884.41
2022-11-16T14:36:06.572Z,99895.09
2022-11-16T14:38:21.959Z,99879.88
2022-11-16T14:40:24.277Z,99882.59
2022-11-16T14:42:54.278Z,99897.19
2022-11-16T14:45:06.340Z,99880.63
2022-11-16T14:47:21.234Z,99892.25
2022-11-16T14:49:26.231Z,99883.03
2022-11-16T14:51:42.796Z,99881.53
2022-11-16T14:54:14.963Z,99880.72
2022-11-16T14:56:18.461Z,99880.63
2022-11-16T14:58:23.044Z,99879.88
2022-11-16T15:00:26.114Z,99881.44
2022-11-16T15:02:38.293Z,99877.22
2022-11-16T15:04:41.422Z,99881.53
2022-11-16T15:06:50.848Z,99874.59
2022-11-16T15:08:59.334Z,99870.38
2022-11-16T15:11:11.731Z,99889.06
2022-11-16T15:13:30.996Z,99893.31
2022-11-16T15:15:35.948Z,99882.53
2022-11-16T15:17:51.974Z,99878.75
2022-11-16T15:20:02.340Z,99884.47
2022-11-16T15:22:05.520Z,99874.31
2022-11-16T15:24:29.775Z,99881.28
2022-11-16T15:26:34.457Z,99888.03
2022-11-16T15:28:37.662Z,99887.41
2022-11-16T15:30:40.677Z,99883.16
2022-11-16T15:32:45.620Z,99876.88
2022-11-16T15:34:54.897Z,99885.28
2022-11-16T15:36:56.844Z,99884.44
2022-11-16T15:39:02.768Z,99883.03
2022-11-16T15:41:06.921Z,99883.03
2022-11-16T15:43:25.401Z,99882.88
2022-11-16T15:45:28.573Z,99898.13
2022-11-16T15:47:32.562Z,99883.91
2022-11-16T15:49:40.404Z,99887.28
2022-11-16T15:51:45.962Z,99877.69
2022-11-16T15:53:53.031Z,99885.97
2022-11-16T15:56:01.548Z,99888.91
2022-11-16T15:58:26.744Z,99884.47
2022-11-16T16:00:29.816Z,99882.00
2022-11-16T16:02:37.793Z,99874.47
2022-11-16T16:04:41.573Z,99888.13
2022-11-16T16:06:53.877Z,99891.44
2022-11-16T16:09:06.598Z,99886.50
2022-11-16T16:11:26.740Z,99879.66
2022-11-16T16:13:35.173Z,99880.69
2022-11-16T16:15:37.677Z,99878.34
2022-11-16T16:17:46.531Z,99876.59
2022-11-16T16:19:56.176Z,99873.94
2022-11-16T16:22:01.314Z,99882.69
2022-11-16T16:24:04.350Z,99881.78
2022-11-16T16:26:06.469Z,99890.09
2022-11-16T16:28:13.750Z,99883.41
2022-11-16T16:30:16.511Z,99889.38
2022-11-16T16:32:23.948Z,99880.88
2022-11-16T16:34:26.090Z,99891.94
2022-11-16T16:36:30.018Z,99893.69
2022-11-16T16:38:31.958Z,99888.75
2022-11-16T16:40:35.854Z,99895.44
2022-11-16T16:42:43.086Z,99892.09
2022-11-16T16:44:46.294Z,99894.75
2022-11-16T16:46:48.195Z,99899.09
2022-11-16T16:48:52.064Z,99895.44
2022-11-16T16:50:54.147Z,99882.81
2022-11-16T16:52:56.069Z,99892.22
2022-11-16T16:54:59.934Z,99892.84
2022-11-16T16:57:02.631Z,99898.66
2022-11-16T16:59:04.514Z,99903.88
2022-11-16T17:01:06.520Z,99899.56
2022-11-16T17:03:09.430Z,99889.16
2022-11-16T17:05:11.758Z,99891.81
2022-11-16T17:07:14.245Z,99895.44
2022-11-16T17:09:22.044Z,99897.31
2022-11-16T17:11:24.478Z,99906.78
2022-11-16T17:13:26.492Z,99901.63
2022-11-16T17:15:30.067Z,99903.31
2022-11-16T17:17:36.371Z,99900.91
2022-11-16T17:19:38.766Z,99900.91
2022-11-16T17:21:41.085Z,99895.78
2022-11-16T17:23:43.189Z,99904.28
2022-11-16T17:25:45.451Z,99904.38
2022-11-16T17:27:48.748Z,99912.13
2022-11-16T17:29:53.133Z,99902.84
2022-11-16T17:31:56.418Z,99902.66
2022-11-16T17:33:58.904Z,99898.34
2022-11-16T17:36:03.297Z,99907.72
2022-11-16T17:38:06.756Z,99903.63
2022-11-16T17:40:09.873Z,99894.31
2022-11-16T17:42:11.834Z,99887.53
2022-11-16T17:44:18.610Z,99896.09
2022-11-16T17:46:26.159Z,99885.81
2022-11-16T17:48:28.256Z,99896.09
2022-11-16T17:50:30.141Z,99892.72
2022-11-16T17:52:33.575Z,99907.31
2022-11-16T17:54:35.585Z,99902.88
2022-11-16T17:56:38.239Z,99913.44
2022-11-16T17:58:40.975Z,99904.75
2022-11-16T18:00:43.121Z,99897.22
2022-11-16T18:02:45.623Z,99903.41
2022-11-16T18:04:51.031Z,99894.03
2022-11-16T18:06:53.718Z,99904.13
2022-11-16T18:08:57.727Z,99897.25
2022-11-16T18:11:16.763Z,99896.41
2022-11-16T18:13:18.768Z,99893.84
2022-11-16T18:15:28.391Z,99887.91
2022-11-16T18:17:31.975Z,99901.44
2022-11-16T18:19:34.354Z,99890.09
2022-11-16T18:21:41.851Z,99891.44
2022-11-16T18:23:44.043Z,99892.06
2022-11-16T18:25:47.233Z,99900.50
2022-11-16T18:27:56.317Z,99888.06
2022-11-16T18:29:58.547Z,99886.94
2022-11-16T18:32:02.022Z,99899.84
2022-11-16T18:34:04.358Z,99906.53
2022-11-16T18:36:08.017Z,99905.66
2022-11-16T18:38:13.309Z,99896.13
2022-11-16T18:40:16.090Z,99903.88
2022-11-16T18:42:19.069Z,99903.31
2022-11-16T18:44:21.411Z,99907.66
2022-11-16T18:46:28.346Z,99906.78
2022-11-16T18:48:31.538Z,99909.94
2022-11-16T18:50:33.914Z,99904.13
2022-11-16T18:52:36.402Z,99912.53
2022-11-16T18:54:38.386Z,99912.41
2022-11-16T18:56:40.657Z,99905.75
2022-11-16T18:58:50.335Z,99903.31
2022-11-16T19:00:55.263Z,99903.44
2022-11-16T19:03:00.648Z,99907.00
2022-11-16T19:05:03.220Z,99906.06
2022-11-16T19:07:06.100Z,99908.88
2022-11-16T19:09:10.247Z,99902.78
2022-11-16T19:11:14.993Z,99907.00
2022-11-16T19:13:18.896Z,99909.56
2022-11-16T19:15:21.309Z,99912.00
2022-11-16T19:17:25.316Z,99905.94
2022-11-16T19:19:28.472Z,99914.41
2022-11-16T19:21:31.740Z,99909.44
2022-11-16T19:23:43.605Z,99906.06
2022-11-16T19:25:46.541Z,99916.28
2022-11-16T19:27:48.857Z,99916.28
2022-11-16T19:29:51.186Z,99920.69
2022-11-16T19:31:53.632Z,99913.06
2022-11-16T19:34:09.346Z,99909.44
2022-11-16T19:36:20.199Z,99910.13
2022-11-16T19:38:22.616Z,99917.28
2022-11-16T19:40:25.282Z,99921.38
2022-11-16T19:42:28.932Z,99915.28
2022-11-16T19:44:30.912Z,99914.47
2022-11-16T19:46:34.233Z,99916.13
2022-11-16T19:48:36.449Z,99919.50
2022-11-16T19:50:38.729Z,99921.38
2022-11-16T19:52:41.123Z,99915.19
2022-11-16T19:54:46.316Z,99918.84
2022-11-16T19:56:54.677Z,99915.41
2022-11-16T19:59:00.877Z,99917.19
2022-11-16T20:01:08.680Z,99940.59
2022-11-16T20:03:12.289Z,99920.97
2022-11-16T20:05:15.189Z,99920.16
2022-11-16T20:07:18.624Z,99920.72
2022-11-16T20:09:21.932Z,99927.66
2022-11-16T20:11:28.365Z,99922.72
2022-11-16T20:13:30.699Z,99927.13
2022-11-16T20:15:33.037Z,99932.25
2022-11-16T20:17:35.714Z,99921.22
2022-11-16T20:19:38.046Z,99925.53
2022-11-16T20:21:41.929Z,99926.31
2022-11-16T20:23:45.976Z,99928.06
2022-11-16T20:25:50.756Z,99922.81
2022-11-16T20:27:53.050Z,99922.59
2022-11-16T20:30:09.294Z,99919.63
2022-11-16T20:32:12.032Z,99915.47
2022-11-16T20:34:22.755Z,99924.69
2022-11-16T20:36:31.131Z,99923.22
2022-11-16T20:38:35.960Z,99926.47
2022-11-16T20:40:38.265Z,99920.63
2022-11-16T20:42:40.367Z,99925.63
2022-11-16T20:44:43.769Z,99927.16
2022-11-16T20:46:46.344Z,99920.28
2022-11-16T20:48:49.359Z,99924.69
2022-11-16T20:50:53.495Z,99930.44
2022-11-16T20:52:56.928Z,99927.97
2022-11-16T20:54:59.322Z,99940.75
2022-11-16T20:57:02.499Z,99918.75
2022-11-16T20:59:05.790Z,99922.44
2022-11-16T21:01:13.616Z,99922.16
2022-11-16T21:03:15.700Z,99926.38
2022-11-16T21:05:17.998Z,99923.22
2022-11-16T21:07:19.939Z,99922.09
2022-11-16T21:09:28.499Z,99920.47
2022-11-16T21:11:52.279Z,99929.19
2022-11-16T21:14:12.705Z,99927.25
2022-11-16T21:16:16.127Z,99926.56
2022-11-16T21:18:18.054Z,99923.19
2022-11-16T21:20:27.420Z,99923.09
2022-11-16T21:22:32.890Z,99920.47
2022-11-16T21:24:35.298Z,99919.75
2022-11-16T21:26:39.002Z,99927.31
2022-11-16T21:28:41.787Z,99922.22
2022-11-16T21:30:54.177Z,99916.03
2022-11-16T21:32:56.167Z,99917.03
2022-11-16T21:34:58.124Z,99914.16
2022-11-16T21:37:00.317Z,99903.19
2022-11-16T21:39:02.469Z,99920.19
2022-11-16T21:41:06.802Z,99910.88
2022-11-16T21:43:08.780Z,99898.94
2022-11-16T21:45:11.170Z,99909.22
2022-11-16T21:48:12.201Z,99908.22
2022-11-16T21:50:31.335Z,99915.78
2022-11-16T21:52:35.036Z,99906.56
2022-11-16T21:55:03.010Z,99908.28
2022-11-16T21:57:05.037Z,99905.69
2022-11-16T21:59:07.052Z,99910.81
2022-11-16T22:01:10.299Z,99904.22
2022-11-16T22:03:12.207Z,99925.38
2022-11-16T22:05:33.080Z,99910.03
2022-11-16T22:07:38.018Z,99899.88
2022-11-16T22:09:40.205Z,99896.41
2022-11-16T22:11:42.146Z,99896.50
2022-11-16T22:13:54.138Z,99902.47
2022-11-16T22:15:56.257Z,99903.19
2022-11-16T22:17:58.232Z,99901.47
2022-11-16T22:20:00.349Z,99902.53
2022-11-16T22:22:02.268Z,99905.06
2022-11-16T22:24:04.438Z,99907.63
2022-11-16T22:26:12.006Z,99903.34
2022-11-16T22:28:20.597Z,99903.28
2022-11-16T22:30:24.325Z,99895.72
2022-11-16T22:32:26.548Z,99904.22
2022-11-16T22:34:28.712Z,99907.72
2022-11-16T22:36:30.657Z,99897.56
2022-11-16T22:38:33.885Z,99898.28
2022-11-16T22:40:35.715Z,99895.84
2022-11-16T22:42:37.646Z,99903.34
2022-11-16T22:44:39.604Z,99901.06
2022-11-16T22:46:41.633Z,99900.06
2022-11-16T22:48:44.265Z,99902.59
2022-11-16T22:50:48.138Z,99901.00
2022-11-16T22:52:50.178Z,99898.50
2022-11-16T22:54:52.063Z,99892.50
2022-11-16T22:56:53.948Z,99890.66
2022-11-16T22:58:56.893Z,99895.84
2022-11-16T23:00:58.757Z,99900.00
2022-11-16T23:03:00.620Z,99896.41
2022-11-16T23:05:02.445Z,99905.16
2022-11-16T23:07:04.453Z,99898.28
2022-11-16T23:09:08.409Z,99897.34
2022-11-16T23:11:33.571Z,99899.88
2022-11-16T23:13:54.222Z,99902.47
2022-11-16T23:15:57.560Z,99901.59
2022-11-16T23:17:59.410Z,99905.00
2022-11-16T23:20:19.714Z,99901.41
2022-11-16T23:22:40.614Z,99899.88
2022-11-16T23:25:01.540Z,99902.41
2022-11-16T23:27:22.551Z,99898.28
2022-11-16T23:29:24.385Z,99903.34
2022-11-16T23:31:26.313Z,99908.16
2022-11-16T23:33:46.543Z,99912.50
2022-11-16T23:35:49.368Z,99910.41
2022-11-16T23:37:52.151Z,99908.16
2022-11-16T23:39:54.060Z,99908.16
2022-11-16T23:42:14.630Z,99909.81
2022-11-16T23:44:16.521Z,99906.56
2022-11-16T23:46:18.269Z,99909.81
2022-11-16T23:48:19.975Z,99902.94
2022-11-16T23:50:21.834Z,99909.69
2022-11-16T23:52:24.637Z,99911.50
2022-11-16T23:54:28.491Z,99902.94
2022-11-16T23:56:30.737Z,99908.81
2022-11-16T23:58:33.562Z,99912.16
